EmailTwitter


Observations de surface / France / LFBO (07630)

Régions: Québec | Canada | États-Unis | Europe | France | UK | Ailleurs
Station
Affichage
Infos & localisation pour LFBO (07630) | Aide pour décoder les METARs

Observations prises le 2017-11-17 à 23H00 UTC à TOULOUSE/BLAGNAC, FR (LFBO)

Température: 4.0 Celsius

Point de rosée: 3.0 Celsius

Humidité relative: 93%

Vents: Sud à 6 km/h ou 3 noeuds.

Pression au niveau moyen de la mer: 102.30 kilopascals.

Visibilité horizontale: 3.73 milles terrestres ou 5.97 kilomètres.

Observation METAR:

LFBO 172300Z AUTO 17003KT 6000 NSC 04/03 Q1023 TEMPO 3000 BR=